Time;durP1;ratioP1;P1;durP2;ratioP2;P2;SDS_P1;SDS_P2;PMS_P1;PMS_P2;Temp;Humidity;BMP_temperature;BMP_pressure;BME280_temperature;BME280_humidity;BME280_pressure;Samples;Min_cycle;Max_cycle;Signal;HPM_P1;HPM_P2
2024/03/21 00:00:13;;;;;;;8.10;7.05;;;11.40;99.90;;;;;;5124979;27;20050;-65
2024/03/21 00:02:40;;;;;;;8.05;6.55;;;11.40;99.90;;;;;;5125579;27;20043;-65
2024/03/21 00:05:07;;;;;;;10.18;7.22;;;11.40;99.90;;;;;;5127946;27;20031;-65
2024/03/21 00:07:33;;;;;;;9.20;7.90;;;11.40;99.90;;;;;;5124624;27;20035;-65
2024/03/21 00:09:59;;;;;;;8.80;7.13;;;11.40;99.90;;;;;;5156830;27;20039;-65
2024/03/21 00:12:25;;;;;;;7.53;6.50;;;11.40;99.90;;;;;;5125162;27;20039;-65
2024/03/21 00:14:51;;;;;;;9.43;7.70;;;11.40;99.90;;;;;;5126041;27;20031;-65
2024/03/21 00:17:16;;;;;;;9.80;7.30;;;11.60;99.90;;;;;;5125077;27;20467;-65
2024/03/21 00:19:42;;;;;;;10.45;7.88;;;11.40;99.90;;;;;;5129993;27;20042;-65
2024/03/21 00:22:08;;;;;;;11.95;8.27;;;11.40;99.90;;;;;;5125195;27;20051;-65
2024/03/21 00:24:37;;;;;;;12.18;8.38;;;11.40;99.90;;;;;;5127566;27;20038;-65
2024/03/21 00:27:04;;;;;;;10.13;8.70;;;11.40;99.90;;;;;;5124673;27;20066;-65
2024/03/21 00:29:30;;;;;;;12.32;8.82;;;11.40;99.90;;;;;;5158022;27;20446;-65
2024/03/21 00:31:56;;;;;;;10.02;8.65;;;11.30;99.90;;;;;;5128312;27;20035;-65
2024/03/21 00:34:22;;;;;;;11.88;10.13;;;11.30;99.90;;;;;;5127378;27;20035;-65
2024/03/21 00:36:47;;;;;;;13.23;9.40;;;11.30;99.90;;;;;;5122783;27;20031;-65
2024/03/21 00:39:19;;;;;;;11.73;10.45;;;11.40;99.90;;;;;;5126245;27;20489;-65
2024/03/21 00:41:48;;;;;;;14.20;11.70;;;11.40;99.90;;;;;;5124552;27;20396;-65
2024/03/21 00:44:14;;;;;;;14.02;11.30;;;11.40;99.90;;;;;;5124261;27;20064;-65
2024/03/21 00:46:39;;;;;;;17.00;14.75;;;11.40;99.90;;;;;;5156893;27;20035;-65
2024/03/21 00:49:10;;;;;;;18.25;14.48;;;11.30;99.90;;;;;;5125189;27;20042;-65
2024/03/21 00:51:36;;;;;;;19.52;15.63;;;11.30;99.90;;;;;;5155675;27;20054;-65
2024/03/21 00:54:01;;;;;;;18.05;15.00;;;11.30;99.90;;;;;;5127488;27;20043;-65
2024/03/21 00:56:27;;;;;;;18.13;15.02;;;11.30;99.90;;;;;;5122811;27;20031;-65
2024/03/21 00:58:58;;;;;;;17.30;14.73;;;11.30;99.90;;;;;;5125254;27;20058;-65
2024/03/21 01:01:26;;;;;;;17.83;15.25;;;11.30;99.90;;;;;;5157658;27;20047;-65
2024/03/21 01:03:53;;;;;;;17.45;14.38;;;11.30;99.90;;;;;;5125353;27;20047;-65
2024/03/21 01:06:18;;;;;;;20.90;15.40;;;11.30;99.90;;;;;;5111614;27;20034;-65
2024/03/21 01:08:44;;;;;;;19.55;15.38;;;11.30;99.90;;;;;;5124171;27;20393;-65
2024/03/21 01:11:09;;;;;;;20.15;14.77;;;11.30;99.90;;;;;;5122763;27;20035;-65
2024/03/21 01:13:35;;;;;;;17.90;14.85;;;11.30;99.90;;;;;;5126085;27;20476;-65
2024/03/21 01:16:02;;;;;;;18.17;15.38;;;11.30;99.90;;;;;;5124123;27;20042;-65
2024/03/21 01:18:35;;;;;;;17.95;14.98;;;11.30;99.90;;;;;;5124894;27;20112;-65
2024/03/21 01:21:05;;;;;;;19.92;15.15;;;11.30;99.90;;;;;;5124031;27;20043;-65
2024/03/21 01:23:31;;;;;;;17.35;14.45;;;11.30;99.90;;;;;;5123216;27;20041;-65
2024/03/21 01:25:58;;;;;;;18.20;14.27;;;11.30;99.90;;;;;;5122372;27;20054;-65
2024/03/21 01:28:23;;;;;;;17.33;13.77;;;11.20;99.90;;;;;;5153432;27;20051;-65
2024/03/21 01:30:49;;;;;;;17.30;13.80;;;11.30;99.90;;;;;;5123571;27;20035;-65
2024/03/21 01:33:15;;;;;;;17.17;13.20;;;11.30;99.90;;;;;;5158283;27;20126;-65
2024/03/21 01:35:40;;;;;;;19.65;13.13;;;11.40;99.90;;;;;;5121856;27;20071;-65
2024/03/21 01:38:06;;;;;;;17.98;13.45;;;11.30;99.90;;;;;;5125505;27;20065;-65
2024/03/21 01:40:37;;;;;;;15.10;12.98;;;11.30;99.90;;;;;;5123529;27;20059;-65
2024/03/21 01:43:03;;;;;;;18.08;14.38;;;11.30;99.90;;;;;;5125799;27;20062;-65
2024/03/21 01:45:28;;;;;;;16.08;13.25;;;11.30;99.90;;;;;;5122343;27;20028;-65
2024/03/21 01:47:58;;;;;;;16.83;13.32;;;11.30;99.90;;;;;;5123399;27;20087;-65
2024/03/21 01:50:25;;;;;;;15.00;13.40;;;11.30;99.90;;;;;;5124517;27;20084;-65
2024/03/21 01:52:51;;;;;;;17.88;13.00;;;11.30;99.90;;;;;;5125148;27;20070;-65
2024/03/21 01:55:17;;;;;;;19.00;13.55;;;11.30;99.90;;;;;;5125652;27;20046;-65
2024/03/21 01:57:46;;;;;;;15.90;11.77;;;11.30;99.90;;;;;;5153112;27;20063;-65
2024/03/21 02:00:12;;;;;;;14.73;12.18;;;11.30;99.90;;;;;;5126600;27;20039;-65
2024/03/21 02:02:37;;;;;;;14.63;12.35;;;11.20;99.90;;;;;;5123933;27;20047;-65
2024/03/21 02:05:04;;;;;;;13.82;11.55;;;11.20;99.90;;;;;;5120207;27;20036;-65
2024/03/21 02:07:33;;;;;;;13.23;11.68;;;11.20;99.90;;;;;;5121571;27;20035;-65
2024/03/21 02:09:59;;;;;;;15.80;12.25;;;11.20;99.90;;;;;;5152030;27;20070;-65
2024/03/21 02:12:46;;;;;;;12.93;11.32;;;11.20;99.90;;;;;;5152897;27;20040;-65
2024/03/21 02:15:12;;;;;;;14.48;11.80;;;11.10;99.90;;;;;;5124740;27;20039;-65
2024/03/21 02:17:39;;;;;;;14.15;11.32;;;11.10;99.90;;;;;;5123356;27;20031;-65
2024/03/21 02:20:05;;;;;;;12.50;11.13;;;11.10;99.90;;;;;;5151677;27;20105;-65
2024/03/21 02:22:37;;;;;;;13.48;11.00;;;11.10;99.90;;;;;;5120065;27;20027;-65
2024/03/21 02:25:04;;;;;;;14.00;11.32;;;11.10;99.90;;;;;;5121504;27;20750;-65
2024/03/21 02:27:31;;;;;;;13.68;11.38;;;11.00;99.90;;;;;;5124784;27;20042;-65
2024/03/21 02:29:57;;;;;;;12.25;10.52;;;11.00;99.90;;;;;;5119451;27;20423;-65
2024/03/21 02:32:23;;;;;;;14.02;11.32;;;11.00;99.90;;;;;;5156455;27;20039;-65
2024/03/21 02:34:48;;;;;;;13.88;10.63;;;11.00;99.90;;;;;;5120069;27;20088;-65
2024/03/21 02:37:14;;;;;;;12.10;10.68;;;10.90;99.90;;;;;;5137691;27;20460;-66
2024/03/21 02:39:41;;;;;;;12.07;10.75;;;11.00;99.90;;;;;;5153009;27;20443;-65
2024/03/21 02:42:07;;;;;;;14.15;9.52;;;10.90;99.90;;;;;;5134269;27;20099;-65
2024/03/21 02:44:32;;;;;;;13.13;10.48;;;10.80;99.90;;;;;;5122056;27;20112;-66
2024/03/21 02:46:58;;;;;;;10.00;9.00;;;10.80;99.90;;;;;;5124080;27;20477;-65
2024/03/21 02:49:24;;;;;;;14.32;10.00;;;10.80;99.90;;;;;;5152006;27;20050;-65
2024/03/21 02:51:49;;;;;;;11.57;9.00;;;10.80;99.90;;;;;;5128009;27;20027;-65
2024/03/21 02:54:15;;;;;;;9.32;8.35;;;10.70;99.90;;;;;;5125388;27;20060;-65
2024/03/21 02:56:41;;;;;;;7.20;6.50;;;10.80;99.90;;;;;;5149510;27;20039;-65
2024/03/21 02:59:06;;;;;;;6.65;6.05;;;10.70;99.90;;;;;;5121754;27;20408;-65
2024/03/21 03:01:32;;;;;;;7.18;5.90;;;10.60;99.90;;;;;;5121794;27;20039;-65
2024/03/21 03:03:57;;;;;;;6.72;5.80;;;10.50;99.90;;;;;;5149129;27;20038;-65
2024/03/21 03:06:23;;;;;;;7.22;5.68;;;10.50;99.90;;;;;;5124798;27;20051;-65
2024/03/21 03:08:49;;;;;;;6.18;4.95;;;10.40;99.90;;;;;;5119762;27;20054;-65
2024/03/21 03:11:14;;;;;;;5.53;5.03;;;10.40;99.90;;;;;;5152918;27;20472;-65
2024/03/21 03:13:40;;;;;;;6.10;5.13;;;10.30;99.90;;;;;;5119952;27;20072;-65
2024/03/21 03:16:06;;;;;;;5.20;4.80;;;10.30;99.90;;;;;;5120787;27;20035;-65
2024/03/21 03:18:31;;;;;;;5.88;5.20;;;10.20;99.90;;;;;;5121621;27;20065;-65
2024/03/21 03:20:57;;;;;;;6.70;6.20;;;10.20;99.90;;;;;;5119944;28;20119;-65
2024/03/21 03:23:23;;;;;;;6.93;6.32;;;10.00;99.90;;;;;;5121342;28;20023;-65
2024/03/21 03:25:48;;;;;;;7.18;6.57;;;9.90;99.90;;;;;;5121593;28;20118;-65
2024/03/21 03:28:14;;;;;;;9.23;7.82;;;9.90;99.90;;;;;;5125337;27;20035;-65
2024/03/21 03:30:39;;;;;;;9.00;7.38;;;9.80;99.90;;;;;;5130150;27;20035;-65
2024/03/21 03:35:49;;;;;;;8.85;8.15;;;9.60;99.90;;;;;;5125443;27;20035;-65
2024/03/21 03:38:15;;;;;;;9.65;8.73;;;9.60;99.90;;;;;;5130165;27;20039;-65
2024/03/21 03:40:41;;;;;;;11.02;9.93;;;9.60;99.90;;;;;;5127654;27;20031;-65
2024/03/21 03:43:07;;;;;;;13.43;11.38;;;9.40;99.90;;;;;;5126935;27;20051;-65
2024/03/21 03:45:33;;;;;;;13.57;10.88;;;9.30;99.90;;;;;;5123745;27;20035;-65
2024/03/21 03:47:58;;;;;;;16.23;10.77;;;9.30;99.90;;;;;;5127833;27;20044;-65
2024/03/21 03:50:24;;;;;;;12.25;11.05;;;9.20;99.90;;;;;;5124190;27;20039;-65
2024/03/21 03:52:49;;;;;;;11.95;9.38;;;9.10;99.90;;;;;;5126256;27;20482;-65
2024/03/21 03:55:15;;;;;;;12.32;7.80;;;9.10;99.90;;;;;;5128821;27;20461;-65
2024/03/21 03:57:41;;;;;;;10.30;7.55;;;9.00;99.90;;;;;;5123194;27;20050;-65
2024/03/21 04:00:10;;;;;;;11.43;6.20;;;8.90;99.90;;;;;;5127299;27;20031;-65
2024/03/21 04:02:41;;;;;;;6.45;4.93;;;8.90;99.90;;;;;;5124831;27;20118;-65
2024/03/21 04:05:09;;;;;;;9.38;6.55;;;8.80;99.90;;;;;;5109243;27;20469;-65
2024/03/21 04:07:36;;;;;;;13.20;6.72;;;8.70;99.90;;;;;;5128045;27;20688;-65
2024/03/21 04:10:02;;;;;;;9.98;7.38;;;8.60;99.90;;;;;;5127423;27;20122;-65
2024/03/21 04:12:27;;;;;;;12.98;7.13;;;8.70;99.90;;;;;;5125327;27;20477;-65
2024/03/21 04:14:54;;;;;;;13.07;6.85;;;8.60;99.90;;;;;;5128832;27;20252;-65
2024/03/21 04:17:20;;;;;;;9.73;6.43;;;8.60;99.90;;;;;;5128009;27;20051;-65
2024/03/21 04:19:46;;;;;;;11.70;6.38;;;8.60;99.90;;;;;;5124768;27;20519;-65
2024/03/21 04:22:11;;;;;;;12.77;6.40;;;8.60;99.90;;;;;;5126500;27;20043;-65
2024/03/21 04:24:39;;;;;;;10.95;5.88;;;8.60;99.90;;;;;;5128079;27;20049;-65
2024/03/21 04:27:05;;;;;;;13.10;6.70;;;8.50;99.90;;;;;;5126047;27;20058;-64
2024/03/21 04:29:30;;;;;;;14.70;5.43;;;8.40;99.90;;;;;;5123112;27;20036;-65
2024/03/21 04:31:56;;;;;;;11.95;5.55;;;8.40;99.90;;;;;;5105712;27;20070;-65
2024/03/21 04:34:21;;;;;;;13.10;5.40;;;8.40;99.90;;;;;;5123037;27;20058;-65
2024/03/21 04:36:47;;;;;;;11.57;4.05;;;8.40;99.90;;;;;;5127910;27;20054;-65
2024/03/21 04:39:12;;;;;;;13.55;4.97;;;8.40;99.90;;;;;;5130445;27;20196;-65
2024/03/21 04:41:38;;;;;;;16.70;5.15;;;8.40;99.90;;;;;;5123370;27;20121;-65
2024/03/21 04:44:04;;;;;;;15.38;3.92;;;8.40;99.90;;;;;;5123375;27;20563;-65
2024/03/21 04:46:29;;;;;;;10.57;3.60;;;8.30;99.90;;;;;;5125901;27;20036;-65
2024/03/21 04:48:55;;;;;;;10.48;3.65;;;8.30;99.90;;;;;;5123610;27;20078;-65
2024/03/21 04:51:21;;;;;;;14.70;3.95;;;8.30;99.90;;;;;;5121429;27;20054;-65
2024/03/21 04:53:47;;;;;;;10.88;3.63;;;8.30;99.90;;;;;;5123303;27;20059;-65
2024/03/21 04:56:12;;;;;;;10.57;3.00;;;8.30;99.90;;;;;;5124888;27;20560;-65
2024/03/21 04:58:38;;;;;;;7.22;2.88;;;8.20;99.90;;;;;;5126314;27;20050;-65
2024/03/21 05:01:07;;;;;;;12.77;3.95;;;8.20;99.90;;;;;;5124519;27;20075;-65
2024/03/21 05:03:33;;;;;;;13.80;3.13;;;8.20;99.90;;;;;;5124239;27;20538;-65
2024/03/21 05:05:58;;;;;;;10.05;3.22;;;8.20;99.90;;;;;;5123367;27;20039;-65
2024/03/21 05:08:25;;;;;;;7.97;3.38;;;8.20;99.90;;;;;;5127200;27;20086;-65
2024/03/21 05:10:50;;;;;;;11.02;4.00;;;8.10;99.90;;;;;;5128218;27;20027;-65
2024/03/21 05:13:16;;;;;;;10.63;3.30;;;8.10;99.90;;;;;;5117576;27;20431;-65
2024/03/21 05:15:48;;;;;;;13.73;4.07;;;8.20;99.90;;;;;;5117781;27;20031;-65
2024/03/21 05:18:14;;;;;;;12.68;3.97;;;8.10;99.90;;;;;;5120630;27;20423;-65
2024/03/21 05:20:40;;;;;;;15.23;4.18;;;8.10;99.90;;;;;;5152440;27;20035;-65
2024/03/21 05:23:05;;;;;;;14.63;3.28;;;8.20;99.90;;;;;;5120006;27;20096;-65
2024/03/21 05:25:34;;;;;;;12.13;2.95;;;8.10;99.90;;;;;;5124874;27;20556;-65
2024/03/21 05:28:00;;;;;;;12.02;3.80;;;8.10;99.90;;;;;;5119871;27;20411;-65
2024/03/21 05:30:25;;;;;;;10.15;2.92;;;8.10;99.90;;;;;;5116546;27;20035;-65
2024/03/21 05:32:51;;;;;;;12.98;3.65;;;8.10;99.90;;;;;;5121728;27;20042;-65
2024/03/21 05:35:17;;;;;;;8.25;1.77;;;8.10;99.90;;;;;;5119350;27;20126;-65
2024/03/21 05:37:43;;;;;;;12.95;2.30;;;8.10;99.90;;;;;;5119665;27;20488;-65
2024/03/21 05:40:09;;;;;;;3.70;0.80;;;8.00;99.90;;;;;;5153222;27;20070;-65
2024/03/21 05:42:35;;;;;;;11.60;1.85;;;8.00;99.90;;;;;;5122267;27;20113;-65
2024/03/21 05:45:01;;;;;;;6.78;2.00;;;8.70;99.90;;;;;;5121670;27;20051;-65
2024/03/21 05:47:26;;;;;;;4.65;1.40;;;7.90;99.90;;;;;;5117323;27;20035;-65
2024/03/21 05:49:52;;;;;;;6.45;1.30;;;7.90;99.90;;;;;;5120013;27;20040;-65
2024/03/21 05:52:18;;;;;;;5.25;1.42;;;7.80;99.90;;;;;;5120819;27;20039;-65
2024/03/21 05:54:49;;;;;;;8.50;1.83;;;7.90;99.90;;;;;;5124507;27;20544;-65
2024/03/21 05:57:14;;;;;;;12.07;1.40;;;7.80;99.90;;;;;;5125023;27;20050;-65
2024/03/21 05:59:40;;;;;;;5.85;1.30;;;7.90;99.90;;;;;;5119384;27;20043;-65
2024/03/21 06:02:05;;;;;;;5.43;1.35;;;7.80;99.90;;;;;;5121015;27;20051;-66
2024/03/21 06:04:31;;;;;;;6.30;1.25;;;7.90;99.90;;;;;;5115932;27;20058;-66
2024/03/21 06:06:57;;;;;;;4.18;1.27;;;7.90;99.90;;;;;;5118915;27;20048;-65
2024/03/21 06:09:24;;;;;;;11.65;2.35;;;7.90;99.90;;;;;;5118126;27;20042;-65
2024/03/21 06:11:50;;;;;;;5.50;1.40;;;7.90;99.90;;;;;;5115191;27;20471;-65
2024/03/21 06:14:22;;;;;;;5.43;0.93;;;7.90;99.90;;;;;;5121338;27;20035;-65
2024/03/21 06:16:47;;;;;;;4.97;1.20;;;8.00;99.90;;;;;;5121173;27;20027;-65
2024/03/21 06:19:13;;;;;;;4.00;1.00;;;8.00;99.90;;;;;;5103667;27;20091;-65
2024/03/21 06:21:38;;;;;;;4.05;1.13;;;8.00;99.90;;;;;;5116248;27;20401;-65
2024/03/21 06:24:04;;;;;;;4.72;1.23;;;8.00;99.90;;;;;;5120437;27;20047;-66
2024/03/21 06:26:30;;;;;;;3.08;0.80;;;8.10;99.90;;;;;;5123594;27;20490;-65
2024/03/21 06:28:56;;;;;;;5.05;1.83;;;8.10;99.90;;;;;;5104695;27;20077;-66
2024/03/21 06:31:22;;;;;;;7.35;1.42;;;8.10;99.90;;;;;;5121059;27;20031;-66
2024/03/21 06:33:47;;;;;;;4.43;1.27;;;8.10;99.90;;;;;;5124632;27;20458;-66
2024/03/21 06:36:13;;;;;;;5.90;1.80;;;8.20;99.90;;;;;;5121054;27;20035;-66
2024/03/21 06:38:39;;;;;;;4.75;1.05;;;8.20;99.90;;;;;;5121056;27;20075;-66
2024/03/21 06:41:04;;;;;;;2.60;0.63;;;8.20;99.90;;;;;;5128155;27;20046;-65
2024/03/21 06:43:30;;;;;;;2.63;0.90;;;8.20;99.90;;;;;;5123574;27;20392;-65
2024/03/21 06:45:56;;;;;;;3.22;1.35;;;8.30;99.90;;;;;;5106463;27;20047;-66
2024/03/21 06:48:22;;;;;;;4.20;1.00;;;8.30;99.90;;;;;;5119640;27;20042;-66
2024/03/21 06:50:48;;;;;;;5.00;1.15;;;8.40;99.90;;;;;;5120031;27;20054;-65
2024/03/21 06:53:14;;;;;;;3.85;0.80;;;8.40;99.90;;;;;;5122976;27;20041;-65
2024/03/21 06:55:40;;;;;;;6.20;1.30;;;8.30;99.90;;;;;;5124879;27;20035;-66
2024/03/21 06:58:05;;;;;;;8.07;1.63;;;8.40;99.90;;;;;;5123773;27;20031;-66
2024/03/21 07:00:32;;;;;;;6.35;0.90;;;8.40;99.90;;;;;;5153938;27;20439;-66
2024/03/21 07:02:58;;;;;;;7.95;1.30;;;8.40;99.90;;;;;;5102990;27;20051;-66
2024/03/21 07:05:24;;;;;;;4.43;1.25;;;8.50;99.90;;;;;;5121967;27;20043;-65
2024/03/21 07:07:54;;;;;;;8.38;1.65;;;8.50;99.90;;;;;;5119145;27;20038;-66
2024/03/21 07:10:20;;;;;;;5.82;1.48;;;8.40;99.90;;;;;;5153073;27;20050;-65
2024/03/21 07:12:46;;;;;;;3.78;1.40;;;8.50;99.90;;;;;;5116705;27;20118;-66
2024/03/21 07:15:16;;;;;;;7.38;1.58;;;8.50;99.90;;;;;;5118467;27;20751;-66
2024/03/21 07:17:42;;;;;;;3.13;1.00;;;8.50;99.90;;;;;;5120065;27;20042;-66
2024/03/21 07:20:11;;;;;;;6.25;1.50;;;8.50;99.90;;;;;;5120931;27;20049;-66
2024/03/21 07:22:38;;;;;;;3.10;0.80;;;8.50;99.90;;;;;;5121865;27;20044;-66
2024/03/21 07:25:06;;;;;;;4.28;1.35;;;8.50;99.90;;;;;;5122029;27;20047;-65
2024/03/21 07:27:32;;;;;;;6.78;1.20;;;8.60;99.90;;;;;;5120587;27;20043;-66
2024/03/21 07:29:58;;;;;;;6.90;1.45;;;8.60;99.90;;;;;;5118612;27;20042;-65
2024/03/21 07:32:23;;;;;;;8.70;2.25;;;8.60;99.90;;;;;;5116996;27;20038;-66
2024/03/21 07:34:52;;;;;;;7.10;1.73;;;8.50;99.90;;;;;;5122337;27;20131;-68
2024/03/21 07:37:18;;;;;;;10.05;1.88;;;8.60;99.90;;;;;;5121061;27;20027;-65
2024/03/21 07:39:43;;;;;;;6.10;1.27;;;8.50;99.90;;;;;;5120644;27;20039;-65
2024/03/21 07:42:09;;;;;;;7.18;1.65;;;8.60;99.90;;;;;;5120454;27;20039;-65
2024/03/21 07:44:35;;;;;;;4.13;1.13;;;8.50;99.90;;;;;;5117998;27;20046;-66
2024/03/21 07:47:00;;;;;;;4.20;1.52;;;8.60;99.90;;;;;;5120638;27;20075;-65
2024/03/21 07:49:26;;;;;;;3.78;0.93;;;8.50;99.90;;;;;;5118081;27;20040;-65
2024/03/21 07:51:52;;;;;;;8.10;1.38;;;8.60;99.90;;;;;;5123168;28;20066;-65
2024/03/21 07:54:18;;;;;;;5.00;1.08;;;8.60;99.90;;;;;;5128394;27;20035;-64
2024/03/21 07:56:43;;;;;;;6.75;1.60;;;8.60;99.90;;;;;;5117042;27;20513;-65
2024/03/21 07:59:09;;;;;;;14.85;2.42;;;8.70;99.90;;;;;;5121656;27;20038;-65
2024/03/21 08:01:35;;;;;;;10.82;2.38;;;8.70;99.90;;;;;;5155858;27;20039;-65
2024/03/21 08:04:06;;;;;;;6.00;1.38;;;8.70;99.90;;;;;;5118664;28;20157;-65
2024/03/21 08:06:31;;;;;;;7.72;2.55;;;8.60;99.90;;;;;;5105730;28;20051;-65
2024/03/21 08:08:57;;;;;;;9.65;2.40;;;8.60;99.90;;;;;;5152303;27;20412;-65
2024/03/21 08:11:23;;;;;;;7.75;1.60;;;8.60;99.90;;;;;;5116220;28;20070;-65
2024/03/21 08:13:49;;;;;;;5.43;1.17;;;8.70;99.90;;;;;;5119737;27;20039;-65
2024/03/21 08:16:15;;;;;;;3.67;1.27;;;8.70;99.90;;;;;;5123331;27;20071;-65
2024/03/21 08:18:40;;;;;;;4.72;1.10;;;8.70;99.90;;;;;;5153756;27;20036;-66
2024/03/21 08:43:48;;;;;;;12.13;1.88;;;9.20;99.90;;;;;;5121734;27;20715;-65
2024/03/21 08:46:14;;;;;;;7.60;1.75;;;9.20;99.90;;;;;;5115140;28;20505;-67
2024/03/21 08:48:39;;;;;;;8.68;1.63;;;9.30;99.90;;;;;;5099282;28;20037;-67
2024/03/21 08:51:05;;;;;;;5.53;1.52;;;9.30;99.90;;;;;;5096546;28;20046;-67
2024/03/21 08:53:32;;;;;;;7.18;1.60;;;9.20;99.90;;;;;;5099587;28;20040;-68
2024/03/21 08:55:58;;;;;;;7.00;1.48;;;9.30;99.90;;;;;;5099722;28;20539;-67
2024/03/21 08:58:24;;;;;;;7.15;1.77;;;9.20;99.90;;;;;;5099734;28;20106;-68
2024/03/21 09:00:49;;;;;;;7.38;1.95;;;9.40;99.90;;;;;;5092786;28;20042;-68
2024/03/21 09:03:15;;;;;;;6.65;1.80;;;9.30;99.90;;;;;;5100611;28;20047;-68
2024/03/21 09:05:40;;;;;;;6.40;1.75;;;9.40;99.90;;;;;;5116040;28;20509;-68
2024/03/21 09:08:06;;;;;;;6.22;2.05;;;9.40;99.90;;;;;;5093385;28;20043;-68
2024/03/21 09:10:31;;;;;;;9.00;2.33;;;9.50;99.90;;;;;;5097794;28;20031;-67
2024/03/21 09:12:57;;;;;;;7.18;1.52;;;9.50;99.90;;;;;;5113297;28;20127;-68
2024/03/21 09:15:23;;;;;;;5.32;1.40;;;9.60;99.90;;;;;;5108398;28;20031;-68
2024/03/21 09:17:48;;;;;;;5.97;1.65;;;9.60;99.90;;;;;;5093538;28;20450;-67
2024/03/21 09:20:14;;;;;;;8.55;1.80;;;9.50;99.90;;;;;;5116434;28;20043;-67
2024/03/21 09:22:40;;;;;;;6.43;1.67;;;9.50;99.90;;;;;;5096323;28;20485;-67
2024/03/21 09:25:05;;;;;;;8.27;1.77;;;9.50;99.90;;;;;;5097257;28;20371;-67
2024/03/21 09:27:31;;;;;;;9.57;2.03;;;9.60;99.90;;;;;;5090076;28;20053;-67
2024/03/21 09:29:57;;;;;;;10.13;2.10;;;9.70;99.90;;;;;;5094353;28;20032;-67
2024/03/21 09:32:23;;;;;;;7.65;1.17;;;9.70;99.90;;;;;;5094903;28;20035;-67
2024/03/21 09:34:52;;;;;;;6.75;1.63;;;9.70;99.90;;;;;;5091981;28;20040;-67
2024/03/21 09:37:24;;;;;;;7.22;1.58;;;9.70;99.90;;;;;;5097805;28;20417;-67
2024/03/21 09:39:50;;;;;;;6.00;1.48;;;9.70;99.90;;;;;;5093439;28;20051;-67
2024/03/21 09:42:17;;;;;;;11.88;2.40;;;9.80;99.90;;;;;;5095361;28;20048;-67
2024/03/21 09:44:48;;;;;;;6.90;1.90;;;9.80;99.90;;;;;;5080994;28;20040;-67
2024/03/21 09:47:19;;;;;;;8.50;2.05;;;9.80;99.90;;;;;;5113363;27;20040;-67
2024/03/21 09:49:54;;;;;;;5.70;1.33;;;9.80;99.90;;;;;;5081366;28;20123;-67
2024/03/21 09:52:21;;;;;;;5.90;1.52;;;9.80;99.90;;;;;;5084298;28;20047;-67
2024/03/21 09:54:47;;;;;;;6.55;1.65;;;9.80;99.90;;;;;;5080927;28;20096;-67
2024/03/21 09:57:13;;;;;;;5.78;1.48;;;9.80;99.90;;;;;;5084136;28;20036;-67
2024/03/21 09:59:40;;;;;;;4.43;1.40;;;9.90;99.90;;;;;;5097818;28;20028;-67
2024/03/21 10:02:12;;;;;;;9.10;2.60;;;9.90;99.90;;;;;;5080896;28;20041;-67
2024/03/21 10:04:47;;;;;;;8.68;2.33;;;10.00;99.90;;;;;;5067332;28;20047;-66
2024/03/21 10:07:19;;;;;;;6.80;1.90;;;9.90;99.90;;;;;;5100166;28;20493;-67
2024/03/21 10:09:56;;;;;;;8.30;2.25;;;9.90;99.90;;;;;;5098908;28;20308;-67
2024/03/21 10:12:22;;;;;;;5.13;1.65;;;9.90;99.90;;;;;;5082854;28;20047;-67
2024/03/21 10:14:51;;;;;;;6.35;1.50;;;9.90;99.90;;;;;;5079284;28;20367;-67
2024/03/21 10:17:17;;;;;;;4.95;1.30;;;9.90;99.90;;;;;;5081537;28;20036;-67
2024/03/21 10:19:42;;;;;;;6.50;2.03;;;9.90;99.90;;;;;;5098311;28;20470;-67
2024/03/21 10:22:19;;;;;;;9.18;1.33;;;9.90;99.90;;;;;;5075931;28;20468;-66
2024/03/21 10:24:50;;;;;;;7.28;1.23;;;10.00;99.90;;;;;;5101451;28;20224;-68
2024/03/21 10:27:17;;;;;;;3.70;0.90;;;10.00;99.90;;;;;;5080371;28;20501;-68
2024/03/21 10:29:44;;;;;;;5.53;1.25;;;10.10;99.90;;;;;;5095268;28;20093;-68
2024/03/21 10:32:16;;;;;;;8.63;1.35;;;10.10;99.90;;;;;;5076323;28;20043;-68
2024/03/21 10:34:50;;;;;;;6.25;1.33;;;10.20;99.90;;;;;;5098902;28;20386;-69
2024/03/21 10:37:21;;;;;;;4.80;1.07;;;10.20;99.90;;;;;;5097028;28;20101;-68
2024/03/21 10:39:48;;;;;;;8.70;2.05;;;10.20;99.90;;;;;;5083643;28;20036;-67
2024/03/21 10:42:30;;;;;;;5.28;1.63;;;10.20;99.90;;;;;;5097083;28;20516;-67
2024/03/21 10:45:01;;;;;;;8.30;1.52;;;10.20;99.90;;;;;;5080008;28;20032;-67
2024/03/21 10:47:29;;;;;;;4.28;1.10;;;10.30;99.90;;;;;;5102624;28;20084;-67
2024/03/21 10:49:54;;;;;;;4.47;1.48;;;10.30;99.90;;;;;;5082241;28;20043;-68
2024/03/21 10:52:20;;;;;;;3.92;1.38;;;10.30;99.90;;;;;;5084000;28;20036;-67
2024/03/21 10:54:51;;;;;;;7.75;2.00;;;10.30;99.90;;;;;;5076495;28;20040;-67
2024/03/21 10:57:18;;;;;;;9.55;3.10;;;10.30;99.90;;;;;;5096978;28;20491;-67
2024/03/21 10:59:59;;;;;;;6.03;2.15;;;10.30;99.90;;;;;;5080514;28;20047;-67
2024/03/21 11:02:28;;;;;;;11.25;2.25;;;10.20;99.90;;;;;;5078261;28;20047;-65
2024/03/21 11:04:55;;;;;;;5.75;1.55;;;10.30;99.90;;;;;;5069280;28;20130;-65
2024/03/21 11:07:21;;;;;;;6.93;1.38;;;10.10;99.90;;;;;;5067806;28;20048;-65
2024/03/21 11:09:49;;;;;;;5.25;1.73;;;10.20;99.90;;;;;;5082869;28;20040;-65
2024/03/21 11:12:15;;;;;;;8.32;1.48;;;10.20;99.90;;;;;;5100180;28;20390;-65
2024/03/21 11:14:50;;;;;;;4.45;1.55;;;10.30;99.90;;;;;;5081499;28;20032;-65
2024/03/21 11:17:16;;;;;;;5.97;1.40;;;10.30;99.90;;;;;;5075034;28;20122;-65
2024/03/21 11:19:42;;;;;;;3.15;1.10;;;10.30;99.90;;;;;;5080932;28;20618;-65
2024/03/21 11:22:12;;;;;;;4.07;1.15;;;10.30;99.90;;;;;;5077545;28;20052;-65
2024/03/21 11:24:37;;;;;;;6.10;2.05;;;10.20;99.90;;;;;;5075033;28;20043;-65
2024/03/21 11:27:05;;;;;;;6.53;1.75;;;10.20;99.90;;;;;;5079831;28;20032;-65
2024/03/21 11:29:31;;;;;;;7.65;2.15;;;10.30;99.90;;;;;;5080962;28;20100;-65
2024/03/21 11:31:56;;;;;;;10.30;2.03;;;10.10;99.90;;;;;;5098068;28;20514;-65
2024/03/21 11:34:24;;;;;;;7.40;1.85;;;10.20;99.90;;;;;;5098065;28;20070;-65
2024/03/21 11:36:49;;;;;;;5.55;1.60;;;10.10;99.90;;;;;;5078455;28;20028;-69
2024/03/21 11:39:17;;;;;;;6.75;1.60;;;10.10;99.90;;;;;;5090199;28;20036;-74
2024/03/21 11:41:43;;;;;;;8.93;1.50;;;10.20;99.90;;;;;;5079116;28;20093;-67
2024/03/21 11:44:14;;;;;;;5.00;1.38;;;10.30;99.90;;;;;;5081062;28;20054;-67
2024/03/21 11:46:39;;;;;;;6.05;1.38;;;10.30;99.90;;;;;;5078954;28;20036;-67
2024/03/21 11:49:08;;;;;;;7.30;1.40;;;10.20;99.90;;;;;;5077152;28;20379;-66
2024/03/21 11:51:34;;;;;;;4.63;1.60;;;10.30;99.90;;;;;;5093064;28;20605;-66
2024/03/21 11:54:03;;;;;;;4.05;1.42;;;10.30;99.90;;;;;;5094329;28;20091;-66
2024/03/21 11:56:33;;;;;;;3.90;1.63;;;10.30;99.90;;;;;;5074812;28;20042;-66
2024/03/21 11:58:59;;;;;;;3.45;1.08;;;10.30;99.90;;;;;;5072194;28;20481;-66
2024/03/21 12:01:26;;;;;;;5.43;1.67;;;10.30;99.90;;;;;;5072178;28;20050;-66
2024/03/21 12:03:51;;;;;;;4.70;1.90;;;10.40;99.90;;;;;;5078347;28;20036;-66
2024/03/21 12:06:19;;;;;;;5.65;1.60;;;10.50;99.90;;;;;;5099382;28;20089;-66
2024/03/21 12:08:47;;;;;;;7.38;1.63;;;10.40;99.90;;;;;;5077857;28;20497;-66
2024/03/21 12:11:16;;;;;;;6.70;2.22;;;10.50;99.90;;;;;;5091234;28;20076;-66
2024/03/21 12:13:43;;;;;;;5.95;1.60;;;10.50;99.90;;;;;;5096328;28;20406;-66
2024/03/21 12:16:14;;;;;;;5.50;1.77;;;10.60;99.90;;;;;;5094797;28;20036;-66
2024/03/21 12:18:41;;;;;;;7.00;2.15;;;10.50;99.90;;;;;;5095980;28;20477;-66
2024/03/21 12:21:13;;;;;;;8.00;2.30;;;10.60;99.90;;;;;;5076990;28;20072;-66
2024/03/21 12:23:38;;;;;;;8.43;1.75;;;10.50;99.90;;;;;;5096475;28;20044;-66
2024/03/21 12:26:04;;;;;;;6.40;1.70;;;10.50;99.90;;;;;;5079939;28;20478;-66
2024/03/21 12:28:30;;;;;;;4.72;2.33;;;10.50;99.90;;;;;;5098693;28;20048;-66
2024/03/21 12:30:56;;;;;;;9.02;2.33;;;10.40;99.90;;;;;;5075005;28;20492;-66
2024/03/21 12:33:22;;;;;;;9.50;2.42;;;10.50;99.90;;;;;;5076389;28;20120;-66
2024/03/21 12:35:48;;;;;;;5.82;1.98;;;10.40;99.90;;;;;;5077869;28;20120;-66
2024/03/21 12:38:13;;;;;;;8.43;2.60;;;10.40;99.90;;;;;;5073506;28;20047;-66
2024/03/21 12:40:42;;;;;;;5.88;1.90;;;10.40;99.90;;;;;;5088844;28;20028;-66
2024/03/21 12:43:08;;;;;;;10.82;2.60;;;10.50;99.90;;;;;;5079673;28;20068;-66
2024/03/21 12:45:33;;;;;;;9.68;2.35;;;10.40;99.90;;;;;;5078899;28;20082;-66
2024/03/21 12:47:59;;;;;;;5.20;2.03;;;10.40;99.90;;;;;;5079273;28;20105;-65
2024/03/21 12:50:25;;;;;;;5.40;1.95;;;10.50;99.90;;;;;;5098036;28;20035;-65
2024/03/21 12:52:50;;;;;;;4.28;2.00;;;10.50;99.90;;;;;;5076492;28;20081;-65
2024/03/21 12:55:16;;;;;;;4.72;1.80;;;10.40;99.90;;;;;;5078677;28;20081;-65
2024/03/21 12:57:41;;;;;;;4.80;1.70;;;10.40;99.90;;;;;;5079432;28;20027;-65
2024/03/21 13:00:09;;;;;;;9.80;1.58;;;10.50;99.90;;;;;;5096823;28;20055;-65
2024/03/21 13:02:35;;;;;;;3.97;1.52;;;10.50;99.90;;;;;;5079267;28;20071;-65
2024/03/21 13:05:04;;;;;;;5.53;1.52;;;10.60;99.90;;;;;;5079291;28;20051;-65
2024/03/21 13:07:30;;;;;;;5.70;2.08;;;10.60;99.90;;;;;;5078794;28;20050;-65